createdAt,value
2018-11-05T00:08:39.699Z,99960.20
2018-11-05T00:13:43.206Z,99965.70
2018-11-05T00:18:47.258Z,99955.31
2018-11-05T00:28:54.216Z,99949.06
2018-11-05T00:33:58.045Z,99948.56
2018-11-05T00:39:01.530Z,99946.73
2018-11-05T00:44:05.272Z,99950.28
2018-11-05T00:49:08.938Z,99949.79
2018-11-05T00:54:12.451Z,99949.79
2018-11-05T00:59:16.698Z,99937.17
2018-11-05T01:04:20.388Z,99942.56
2018-11-05T01:09:24.118Z,99935.33
2018-11-05T01:14:27.661Z,99922.21
2018-11-05T01:19:31.160Z,99913.27
2018-11-05T01:24:35.182Z,99903.34
2018-11-05T01:29:38.639Z,99911.43
2018-11-05T01:34:42.574Z,99909.98
2018-11-05T01:39:46.058Z,99899.56
2018-11-05T01:44:49.649Z,99919.42
2018-11-05T01:49:53.177Z,99905.81
2018-11-05T01:54:56.945Z,99913.41
2018-11-05T02:00:01.484Z,99920.14
2018-11-05T02:05:07.939Z,99908.38
2018-11-05T02:10:16.912Z,99898.09
2018-11-05T02:15:20.397Z,99900.30
2018-11-05T02:20:23.975Z,99891.34
2018-11-05T02:25:27.433Z,99903.25
2018-11-05T02:30:30.926Z,99895.75
2018-11-05T02:35:34.389Z,99881.06
2018-11-05T02:40:37.859Z,99877.23
2018-11-05T02:45:41.329Z,99862.80
2018-11-05T02:50:44.787Z,99870.75
2018-11-05T02:55:48.251Z,99868.88
2018-11-05T03:00:51.729Z,99867.27
2018-11-05T03:05:55.200Z,99870.08
2018-11-05T03:10:58.650Z,99875.73
2018-11-05T03:16:02.114Z,99878.29
2018-11-05T03:21:06.397Z,99869.08
2018-11-05T03:26:09.870Z,99876.07
2018-11-05T03:31:13.322Z,99866.38
2018-11-05T03:36:16.810Z,99852.67
2018-11-05T03:41:20.308Z,99862.23
2018-11-05T03:46:23.774Z,99848.48
2018-11-05T03:51:27.245Z,99836.36
2018-11-05T03:56:30.759Z,99836.49
2018-11-05T04:01:34.222Z,99846.91
2018-11-05T04:06:37.751Z,99836.62
2018-11-05T04:11:41.220Z,99832.67
2018-11-05T04:16:44.725Z,99831.82
2018-11-05T04:21:48.195Z,99829.62
2018-11-05T04:26:51.658Z,99835.50
2018-11-05T04:31:55.219Z,99831.22
2018-11-05T04:36:58.699Z,99838.32
2018-11-05T04:42:02.178Z,99837.32
2018-11-05T04:47:05.744Z,99833.89
2018-11-05T04:52:09.275Z,99825.53
2018-11-05T04:57:12.766Z,99825.30
2018-11-05T05:02:16.236Z,99829.44
2018-11-05T05:07:19.717Z,99816.46
2018-11-05T05:12:23.209Z,99814.02
2018-11-05T05:17:26.648Z,99812.41
2018-11-05T05:22:30.269Z,99806.66
2018-11-05T05:27:33.554Z,99810.82
2018-11-05T05:32:37.019Z,99816.33
2018-11-05T05:37:40.935Z,99810.09
2018-11-05T05:42:44.422Z,99800.89
2018-11-05T05:47:47.878Z,99800.03
2018-11-05T05:52:51.333Z,99807.75
2018-11-05T05:57:54.782Z,99796.61
2018-11-05T06:02:58.246Z,99788.76
2018-11-05T06:08:01.674Z,99813.48
2018-11-05T06:13:05.301Z,99813.60
2018-11-05T06:18:08.747Z,99798.52
2018-11-05T06:23:12.224Z,99801.58
2018-11-05T06:28:15.688Z,99799.51
2018-11-05T06:33:19.147Z,99789.69
2018-11-05T06:38:22.634Z,99800.58
2018-11-05T06:43:26.087Z,99810.95
2018-11-05T06:48:29.534Z,99820.98
2018-11-05T06:53:33.047Z,99814.62
2018-11-05T06:58:36.505Z,99816.95
2018-11-05T07:03:39.943Z,99822.83
2018-11-05T07:08:43.387Z,99820.75
2018-11-05T07:13:46.815Z,99820.75
2018-11-05T07:18:50.471Z,99830.63
2018-11-05T07:23:53.702Z,99828.55
2018-11-05T07:28:57.303Z,99830.38
2018-11-05T07:34:00.866Z,99824.36
2018-11-05T07:39:06.047Z,99817.36
2018-11-05T07:44:09.926Z,99835.38
2018-11-05T07:49:13.375Z,99842.70
2018-11-05T07:54:16.879Z,99848.70
2018-11-05T07:59:20.322Z,99843.09
2018-11-05T08:04:23.822Z,99863.37
2018-11-05T08:09:27.281Z,99848.80
2018-11-05T08:14:30.750Z,99850.64
2018-11-05T08:19:34.217Z,99848.20
2018-11-05T08:24:37.691Z,99835.90
2018-11-05T08:29:41.141Z,99833.77
2018-11-05T08:34:44.591Z,99829.72
2018-11-05T08:39:48.073Z,99824.27
2018-11-05T08:44:51.580Z,99828.09
2018-11-05T08:49:55.079Z,99816.51
2018-11-05T08:54:58.552Z,99836.09
2018-11-05T09:00:02.065Z,99822.09
2018-11-05T09:05:06.310Z,99815.94
2018-11-05T09:10:09.800Z,99812.92
2018-11-05T09:15:14.536Z,99826.40
2018-11-05T09:20:19.739Z,99836.00
2018-11-05T09:25:23.203Z,99844.23
2018-11-05T09:30:26.748Z,99827.69
2018-11-05T09:35:30.190Z,99826.22
2018-11-05T09:40:33.652Z,99821.92
2018-11-05T09:45:37.262Z,99812.50
2018-11-05T09:50:40.746Z,99798.38
2018-11-05T09:55:44.212Z,99796.30
2018-11-05T10:00:47.701Z,99812.88
2018-11-05T10:05:51.171Z,99823.79
2018-11-05T10:10:54.627Z,99786.47
2018-11-05T10:15:58.100Z,99776.13
2018-11-05T10:21:01.581Z,99756.98
2018-11-05T10:26:05.264Z,99758.08
2018-11-05T10:31:08.719Z,99758.14
2018-11-05T10:36:12.163Z,99749.73
2018-11-05T10:41:15.936Z,99749.25
2018-11-05T10:46:19.449Z,99761.61
2018-11-05T10:51:23.040Z,99738.81
2018-11-05T10:56:26.400Z,99706.32
2018-11-05T11:01:35.186Z,99695.45
2018-11-05T11:06:38.623Z,99712.95
2018-11-05T11:11:42.071Z,99710.63
2018-11-05T11:16:45.583Z,99702.05
2018-11-05T11:21:49.069Z,99701.67
2018-11-05T11:26:52.511Z,99702.81
2018-11-05T11:31:55.962Z,99681.03
2018-11-05T11:36:59.468Z,99682.16
2018-11-05T11:42:02.978Z,99673.13
2018-11-05T11:47:06.393Z,99681.06
2018-11-05T11:52:09.869Z,99676.30
2018-11-05T11:57:13.298Z,99665.91
2018-11-05T12:02:17.893Z,99676.67
2018-11-05T12:07:21.329Z,99663.96
2018-11-05T12:12:24.831Z,99659.56
2018-11-05T12:17:28.273Z,99669.33
2018-11-05T12:22:31.728Z,99642.34
2018-11-05T12:27:35.274Z,99641.85
2018-11-05T12:32:38.707Z,99633.63
2018-11-05T12:37:44.279Z,99637.45
2018-11-05T12:42:48.934Z,99633.91
2018-11-05T12:47:52.377Z,99631.31
2018-11-05T12:52:56.275Z,99640.23
2018-11-05T12:57:59.744Z,99641.00
2018-11-05T13:03:03.219Z,99630.77
2018-11-05T13:08:06.684Z,99609.74
2018-11-05T13:13:10.137Z,99620.71
2018-11-05T13:18:13.639Z,99614.60
2018-11-05T13:23:21.221Z,99618.77
2018-11-05T13:28:24.694Z,99600.16
2018-11-05T13:33:28.221Z,99607.16
2018-11-05T13:38:31.738Z,99594.78
2018-11-05T13:43:35.187Z,99591.86
2018-11-05T13:48:39.162Z,99578.80
2018-11-05T13:53:42.187Z,99578.55
2018-11-05T13:58:45.684Z,99587.02
2018-11-05T14:03:49.124Z,99575.36
2018-11-05T14:08:52.744Z,99587.12
2018-11-05T14:13:56.228Z,99572.81
2018-11-05T14:18:59.691Z,99585.28
2018-11-05T14:24:03.141Z,99570.74
2018-11-05T14:29:06.913Z,99595.17
2018-11-05T14:34:10.334Z,99593.33
2018-11-05T14:39:14.936Z,99585.19
2018-11-05T14:44:18.419Z,99584.19
2018-11-05T14:49:21.847Z,99572.93
2018-11-05T14:54:25.275Z,99574.89
2018-11-05T14:59:28.714Z,99574.02
2018-11-05T15:04:33.583Z,99570.37
2018-11-05T15:09:37.038Z,99561.91
2018-11-05T15:14:40.587Z,99573.27
2018-11-05T15:19:44.539Z,99562.52
2018-11-05T15:24:47.484Z,99556.53
2018-11-05T15:29:50.981Z,99562.30
2018-11-05T15:34:54.470Z,99561.05
2018-11-05T15:39:57.902Z,99558.28
2018-11-05T15:45:01.372Z,99546.14
2018-11-05T15:50:07.290Z,99550.05
2018-11-05T15:55:13.219Z,99544.67
2018-11-05T16:00:19.056Z,99555.17
2018-11-05T16:05:22.533Z,99559.97
2018-11-05T16:10:27.440Z,99561.18
2018-11-05T16:15:30.902Z,99555.80
2018-11-05T16:20:34.356Z,99568.27
2018-11-05T16:25:41.594Z,99569.97
2018-11-05T16:30:46.483Z,99560.56
2018-11-05T16:35:51.636Z,99550.44
2018-11-05T16:40:57.698Z,99560.12
2018-11-05T16:46:01.743Z,99549.23
2018-11-05T16:51:05.814Z,99548.61
2018-11-05T16:56:10.368Z,99537.86
2018-11-05T17:01:14.761Z,99537.73
2018-11-05T17:06:20.418Z,99528.72
2018-11-05T17:11:23.906Z,99531.44
2018-11-05T17:16:27.556Z,99535.70
2018-11-05T17:21:31.063Z,99536.36
2018-11-05T17:26:34.530Z,99533.28
2018-11-05T17:31:38.018Z,99548.34
2018-11-05T17:36:41.499Z,99540.03
2018-11-05T17:41:45.009Z,99527.65
2018-11-05T17:46:48.537Z,99529.37
2018-11-05T17:51:52.038Z,99533.04
2018-11-05T17:56:55.575Z,99516.88
2018-11-05T18:01:59.076Z,99521.29
2018-11-05T18:07:02.591Z,99517.27
2018-11-05T18:12:06.129Z,99525.83
2018-11-05T18:17:09.731Z,99524.19
2018-11-05T18:22:13.256Z,99519.39
2018-11-05T18:27:16.761Z,99513.78
2018-11-05T18:32:21.228Z,99526.98
2018-11-05T18:37:24.888Z,99530.65
2018-11-05T18:42:28.430Z,99528.81
2018-11-05T18:47:32.033Z,99524.92
2018-11-05T18:52:35.674Z,99528.45
2018-11-05T18:57:39.674Z,99518.03
2018-11-05T19:02:43.267Z,99519.74
2018-11-05T19:07:47.263Z,99519.03
2018-11-05T19:12:51.751Z,99515.71
2018-11-05T19:17:55.285Z,99511.97
2018-11-05T19:22:58.996Z,99513.28
2018-11-05T19:28:02.270Z,99508.11
2018-11-05T19:33:06.470Z,99508.64
2018-11-05T19:38:09.969Z,99499.59
2018-11-05T19:43:13.524Z,99498.13
2018-11-05T19:48:17.043Z,99497.56
2018-11-05T19:53:20.642Z,99493.27
2018-11-05T19:58:24.274Z,99495.97
2018-11-05T20:03:27.806Z,99508.73
2018-11-05T20:08:31.263Z,99507.23
2018-11-05T20:13:34.900Z,99502.98
2018-11-05T20:18:38.427Z,99493.30
2018-11-05T20:23:42.158Z,99497.97
2018-11-05T20:28:45.878Z,99501.88
2018-11-05T20:33:49.381Z,99508.00
2018-11-05T20:38:52.857Z,99509.59
2018-11-05T20:43:56.374Z,99499.06
2018-11-05T20:48:59.933Z,99499.55
2018-11-05T20:54:03.518Z,99503.24
2018-11-05T20:59:07.239Z,99506.67
2018-11-05T21:04:10.868Z,99512.06
2018-11-05T21:09:14.324Z,99505.72
2018-11-05T21:14:17.913Z,99497.73
2018-11-05T21:19:21.390Z,99500.56
2018-11-05T21:24:25.558Z,99505.95
2018-11-05T21:29:29.010Z,99514.53
2018-11-05T21:34:32.483Z,99510.98
2018-11-05T21:39:35.959Z,99509.15
2018-11-05T21:44:39.466Z,99504.25
2018-11-05T21:49:42.941Z,99510.13
2018-11-05T21:54:46.423Z,99514.67
2018-11-05T21:59:49.899Z,99497.76
2018-11-05T22:04:53.372Z,99499.47
2018-11-05T22:09:56.837Z,99500.81
2018-11-05T22:15:00.326Z,99500.81
2018-11-05T22:20:04.450Z,99503.15
2018-11-05T22:25:08.099Z,99507.19
2018-11-05T22:30:12.119Z,99506.83
2018-11-05T22:35:15.599Z,99506.83
2018-11-05T22:40:19.076Z,99521.65
2018-11-05T22:45:22.570Z,99524.20
2018-11-05T22:50:26.047Z,99518.10
2018-11-05T22:55:29.556Z,99516.26
2018-11-05T23:00:38.346Z,99523.49
2018-11-05T23:05:41.879Z,99517.25
2018-11-05T23:10:45.409Z,99522.14
2018-11-05T23:15:48.925Z,99532.56
2018-11-05T23:20:52.425Z,99531.35
2018-11-05T23:25:55.897Z,99535.85
2018-11-05T23:30:59.378Z,99541.24
2018-11-05T23:36:02.896Z,99537.70
2018-11-05T23:41:06.388Z,99544.82
2018-11-05T23:46:09.876Z,99547.98
2018-11-05T23:51:13.383Z,99547.75
2018-11-05T23:56:16.872Z,99554.84
